createdAt,value
2023-01-29T00:00:00.306Z,101225.31
2023-01-29T00:02:27.946Z,101225.16
2023-01-29T00:04:59.039Z,101221.03
2023-01-29T00:07:26.927Z,101230.91
2023-01-29T00:09:54.510Z,101224.81
2023-01-29T00:12:22.704Z,101238.09
2023-01-29T00:14:50.557Z,101239.03
2023-01-29T00:17:18.279Z,101239.72
2023-01-29T00:19:47.348Z,101241.94
2023-01-29T00:22:15.047Z,101237.13
2023-01-29T00:24:44.418Z,101233.91
2023-01-29T00:27:12.305Z,101241.22
2023-01-29T00:29:39.988Z,101245.19
2023-01-29T00:32:07.791Z,101243.28
2023-01-29T00:34:36.053Z,101251.69
2023-01-29T00:37:09.108Z,101250.69
2023-01-29T00:39:47.714Z,101251.25
2023-01-29T00:42:34.179Z,101250.44
2023-01-29T00:45:02.337Z,101251.25
2023-01-29T00:47:36.597Z,101247.09
2023-01-29T00:50:11.235Z,101248.69
2023-01-29T00:52:41.176Z,101244.72
2023-01-29T00:55:11.017Z,101254.25
2023-01-29T00:57:38.966Z,101250.59
2023-01-29T01:00:10.947Z,101245.31
2023-01-29T01:02:58.205Z,101255.84
2023-01-29T01:05:27.763Z,101253.78
2023-01-29T01:07:58.360Z,101257.47
2023-01-29T01:10:32.702Z,101258.84
2023-01-29T01:13:03.753Z,101261.19
2023-01-29T01:15:36.971Z,101250.69
2023-01-29T01:18:05.439Z,101262.78
2023-01-29T01:20:35.468Z,101256.09
2023-01-29T01:23:03.595Z,101259.72
2023-01-29T01:25:31.715Z,101266.03
2023-01-29T01:28:36.708Z,101256.69
2023-01-29T01:31:11.640Z,101255.03
2023-01-29T01:33:40.141Z,101258.84
2023-01-29T01:36:11.309Z,101267.47
2023-01-29T01:38:45.309Z,101267.59
2023-01-29T01:41:16.811Z,101264.44
2023-01-29T01:43:48.851Z,101263.13
2023-01-29T01:46:17.674Z,101271.81
2023-01-29T01:48:49.487Z,101266.91
2023-01-29T01:51:18.385Z,101267.63
2023-01-29T01:53:57.822Z,101274.19
2023-01-29T01:56:38.337Z,101280.19
2023-01-29T01:59:09.812Z,101285.72
2023-01-29T02:01:42.800Z,101285.53
2023-01-29T02:04:36.726Z,101287.47
2023-01-29T02:07:25.564Z,101292.38
2023-01-29T02:09:54.837Z,101297.47
2023-01-29T02:12:23.771Z,101298.22
2023-01-29T02:14:51.671Z,101303.44
2023-01-29T02:17:20.650Z,101299.34
2023-01-29T02:20:13.236Z,101297.91
2023-01-29T02:23:06.006Z,101303.59
2023-01-29T02:25:56.909Z,101305.72
2023-01-29T02:28:42.438Z,101311.31
2023-01-29T02:31:13.232Z,101319.25
2023-01-29T02:33:41.200Z,101310.69
2023-01-29T02:36:18.581Z,101313.38
2023-01-29T02:39:33.009Z,101321.53
2023-01-29T02:42:20.826Z,101326.91
2023-01-29T02:44:56.921Z,101324.13
2023-01-29T02:47:33.282Z,101333.81
2023-01-29T02:50:34.197Z,101333.00
2023-01-29T02:53:13.722Z,101335.19
2023-01-29T02:55:59.608Z,101331.97
2023-01-29T02:58:43.153Z,101326.00
2023-01-29T03:01:20.055Z,101336.94
2023-01-29T03:03:56.090Z,101338.41
2023-01-29T03:06:32.916Z,101340.69
2023-01-29T03:09:05.573Z,101342.41
2023-01-29T03:11:47.277Z,101337.44
2023-01-29T03:14:19.942Z,101335.78
2023-01-29T03:16:51.917Z,101337.81
2023-01-29T03:19:28.548Z,101336.03
2023-01-29T03:22:01.021Z,101343.66
2023-01-29T03:24:56.381Z,101336.94
2023-01-29T03:27:46.929Z,101350.34
2023-01-29T03:30:37.579Z,101349.25
2023-01-29T03:33:10.235Z,101355.28
2023-01-29T03:35:44.668Z,101352.53
2023-01-29T03:38:13.340Z,101343.13
2023-01-29T03:40:52.516Z,101351.72
2023-01-29T03:43:56.280Z,101352.75
2023-01-29T03:46:32.352Z,101354.50
2023-01-29T03:49:23.797Z,101358.09
2023-01-29T03:51:51.711Z,101353.22
2023-01-29T03:54:48.893Z,101356.00
2023-01-29T03:57:41.281Z,101367.69
2023-01-29T04:00:21.225Z,101370.69
2023-01-29T04:02:53.835Z,101372.09
2023-01-29T04:05:25.521Z,101368.13
2023-01-29T04:08:03.071Z,101367.38
2023-01-29T04:10:36.130Z,101377.19
2023-01-29T04:13:07.669Z,101375.75
2023-01-29T04:15:45.277Z,101376.03
2023-01-29T04:18:13.597Z,101373.91
2023-01-29T04:20:43.310Z,101376.72
2023-01-29T04:23:22.962Z,101377.50
2023-01-29T04:26:18.499Z,101374.50
2023-01-29T04:28:55.943Z,101380.13
2023-01-29T04:31:32.864Z,101374.03
2023-01-29T04:34:16.303Z,101368.47
2023-01-29T04:37:07.722Z,101361.38
2023-01-29T04:39:54.424Z,101372.75
2023-01-29T04:42:40.979Z,101366.28
2023-01-29T04:45:23.815Z,101359.63
2023-01-29T04:48:09.095Z,101367.94
2023-01-29T04:50:46.463Z,101366.44
2023-01-29T04:53:44.402Z,101361.56
2023-01-29T04:56:26.693Z,101360.53
2023-01-29T04:59:09.412Z,101361.84
2023-01-29T05:01:38.688Z,101366.56
2023-01-29T05:04:12.109Z,101378.66
2023-01-29T05:06:40.395Z,101372.03
2023-01-29T05:09:09.934Z,101377.88
2023-01-29T05:11:37.789Z,101374.06
2023-01-29T05:14:10.131Z,101373.34
2023-01-29T05:16:46.147Z,101369.78
2023-01-29T05:19:16.055Z,101368.06
2023-01-29T05:21:49.393Z,101367.62
2023-01-29T05:24:20.185Z,101372.03
2023-01-29T05:27:08.846Z,101381.34
2023-01-29T05:29:36.797Z,101378.34
2023-01-29T05:32:04.837Z,101379.81
2023-01-29T05:34:32.406Z,101376.37
2023-01-29T05:37:00.026Z,101385.06
2023-01-29T05:39:28.351Z,101376.81
2023-01-29T05:41:56.381Z,101377.44
2023-01-29T05:44:23.968Z,101383.03
2023-01-29T05:46:52.003Z,101386.37
2023-01-29T05:49:20.698Z,101384.62
2023-01-29T05:51:48.313Z,101386.72
2023-01-29T05:54:16.365Z,101387.56
2023-01-29T05:56:44.076Z,101390.38
2023-01-29T05:59:11.710Z,101393.06
2023-01-29T06:01:39.740Z,101380.88
2023-01-29T06:04:07.735Z,101386.97
2023-01-29T06:06:35.338Z,101395.25
2023-01-29T06:09:03.035Z,101395.44
2023-01-29T06:11:31.152Z,101391.59
2023-01-29T06:13:58.728Z,101398.31
2023-01-29T06:16:26.476Z,101392.38
2023-01-29T06:18:54.462Z,101397.94
2023-01-29T06:21:22.477Z,101392.53
2023-01-29T06:23:52.845Z,101400.25
2023-01-29T06:26:21.034Z,101399.47
2023-01-29T06:28:49.936Z,101406.97
2023-01-29T06:31:37.697Z,101413.91
2023-01-29T06:34:09.839Z,101414.59
2023-01-29T06:36:37.589Z,101418.06
2023-01-29T06:39:05.294Z,101417.50
2023-01-29T06:41:33.595Z,101419.38
2023-01-29T06:44:01.434Z,101433.56
2023-01-29T06:46:29.081Z,101431.66
2023-01-29T06:49:00.926Z,101439.50
2023-01-29T06:51:28.526Z,101437.72
2023-01-29T06:53:56.522Z,101440.22
2023-01-29T06:56:25.020Z,101449.28
2023-01-29T06:58:52.685Z,101448.25
2023-01-29T07:01:34.656Z,101447.91
2023-01-29T07:04:03.914Z,101452.47
2023-01-29T07:06:32.261Z,101452.19
2023-01-29T07:08:59.988Z,101447.41
2023-01-29T07:11:27.856Z,101448.81
2023-01-29T07:13:55.624Z,101456.78
2023-01-29T07:16:23.573Z,101444.88
2023-01-29T07:18:51.824Z,101450.72
2023-01-29T07:21:19.505Z,101449.97
2023-01-29T07:23:47.232Z,101453.97
2023-01-29T07:26:15.477Z,101457.63
2023-01-29T07:28:43.182Z,101452.28
2023-01-29T07:31:13.663Z,101445.12
2023-01-29T07:33:44.399Z,101445.75
2023-01-29T07:36:13.374Z,101446.63
2023-01-29T07:38:41.465Z,101446.28
2023-01-29T07:41:11.446Z,101448.59
2023-01-29T07:43:39.110Z,101441.56
2023-01-29T07:46:07.271Z,101451.41
2023-01-29T07:48:35.263Z,101446.34
2023-01-29T07:51:03.300Z,101444.84
2023-01-29T07:53:31.327Z,101442.44
2023-01-29T07:55:58.979Z,101442.41
2023-01-29T07:58:26.645Z,101442.06
2023-01-29T08:00:54.632Z,101446.25
2023-01-29T08:03:22.681Z,101439.06
2023-01-29T08:05:50.383Z,101448.03
2023-01-29T08:08:19.397Z,101444.94
2023-01-29T08:10:47.745Z,101446.44
2023-01-29T08:13:15.439Z,101451.22
2023-01-29T08:15:45.409Z,101450.22
2023-01-29T08:18:14.458Z,101446.50
2023-01-29T08:20:42.641Z,101442.88
2023-01-29T08:23:16.547Z,101444.38
2023-01-29T08:25:44.590Z,101442.91
2023-01-29T08:28:12.585Z,101445.75
2023-01-29T08:30:40.294Z,101446.47
2023-01-29T08:33:08.408Z,101447.22
2023-01-29T08:35:36.457Z,101443.84
2023-01-29T08:38:05.358Z,101448.22
2023-01-29T08:40:37.904Z,101446.28
2023-01-29T08:43:09.129Z,101448.13
2023-01-29T08:45:40.666Z,101457.97
2023-01-29T08:48:09.174Z,101456.28
2023-01-29T08:50:38.274Z,101459.00
2023-01-29T08:53:08.059Z,101463.34
2023-01-29T08:55:40.291Z,101473.41
2023-01-29T08:58:11.032Z,101472.50
2023-01-29T09:00:39.077Z,101462.94
2023-01-29T09:03:08.040Z,101470.63
2023-01-29T09:05:37.622Z,101467.72
2023-01-29T09:08:06.468Z,101476.12
2023-01-29T09:10:34.703Z,101475.53
2023-01-29T09:13:03.263Z,101475.16
2023-01-29T09:15:31.306Z,101476.75
2023-01-29T09:18:03.867Z,101481.28
2023-01-29T09:20:32.823Z,101493.63
2023-01-29T09:23:08.554Z,101487.50
2023-01-29T09:25:37.666Z,101484.66
2023-01-29T09:28:08.639Z,101484.03
2023-01-29T09:30:38.222Z,101479.31
2023-01-29T09:33:07.290Z,101482.31
2023-01-29T09:35:35.122Z,101478.50
2023-01-29T09:38:03.121Z,101491.88
2023-01-29T09:40:41.558Z,101489.88
2023-01-29T09:43:24.483Z,101494.44
2023-01-29T09:46:13.441Z,101495.88
2023-01-29T09:48:42.109Z,101496.38
2023-01-29T09:51:24.275Z,101498.78
2023-01-29T09:54:05.162Z,101492.97
2023-01-29T09:56:32.822Z,101496.75
2023-01-29T09:59:01.990Z,101500.47
2023-01-29T10:01:52.024Z,101501.84
2023-01-29T10:04:31.192Z,101497.13
2023-01-29T10:07:04.560Z,101493.56
2023-01-29T10:10:04.799Z,101492.69
2023-01-29T10:12:56.394Z,101490.72
2023-01-29T10:15:39.463Z,101494.28
2023-01-29T10:18:34.347Z,101497.50
2023-01-29T10:21:05.357Z,101498.34
2023-01-29T10:23:46.043Z,101501.69
2023-01-29T10:26:14.247Z,101495.78
2023-01-29T10:28:48.459Z,101486.00
2023-01-29T10:31:20.793Z,101492.50
2023-01-29T10:34:03.444Z,101480.59
2023-01-29T10:36:37.195Z,101481.34
2023-01-29T10:39:04.809Z,101489.44
2023-01-29T10:42:06.778Z,101488.00
2023-01-29T10:44:49.527Z,101485.13
2023-01-29T10:47:33.125Z,101483.53
2023-01-29T10:50:19.259Z,101485.78
2023-01-29T10:53:08.586Z,101486.28
2023-01-29T10:55:59.370Z,101486.53
2023-01-29T10:58:52.257Z,101468.59
2023-01-29T11:01:20.164Z,101463.53
2023-01-29T11:03:58.192Z,101459.84
2023-01-29T11:06:30.024Z,101465.62
2023-01-29T11:09:36.460Z,101457.63
2023-01-29T11:12:09.815Z,101452.38
2023-01-29T11:14:53.713Z,101448.69
2023-01-29T11:17:26.001Z,101449.63
2023-01-29T11:19:55.962Z,101442.69
2023-01-29T11:22:26.259Z,101438.13
2023-01-29T11:25:25.411Z,101442.94
2023-01-29T11:27:56.348Z,101436.69
2023-01-29T11:30:34.554Z,101436.34
2023-01-29T11:33:05.328Z,101433.00
2023-01-29T11:35:33.523Z,101432.44
2023-01-29T11:38:16.260Z,101437.66
2023-01-29T11:40:44.942Z,101433.06
2023-01-29T11:43:27.745Z,101435.47
2023-01-29T11:46:00.470Z,101424.69
2023-01-29T11:48:45.684Z,101425.84
2023-01-29T11:51:26.548Z,101423.63
2023-01-29T11:53:58.622Z,101421.94
2023-01-29T11:56:42.582Z,101419.94
2023-01-29T11:59:42.846Z,101421.50
2023-01-29T12:02:30.804Z,101428.31
2023-01-29T12:05:20.181Z,101422.69
2023-01-29T12:07:51.629Z,101409.69
2023-01-29T12:10:39.089Z,101409.97
2023-01-29T12:13:23.035Z,101401.03
2023-01-29T12:16:18.138Z,101401.56
2023-01-29T12:18:53.293Z,101393.91
2023-01-29T12:21:34.966Z,101395.50
2023-01-29T12:24:27.177Z,101388.03
2023-01-29T12:27:15.044Z,101387.53
2023-01-29T12:29:56.687Z,101391.56
2023-01-29T12:32:39.409Z,101378.56
2023-01-29T12:35:41.564Z,101379.72
2023-01-29T12:38:21.981Z,101385.41
2023-01-29T12:41:05.783Z,101374.81
2023-01-29T12:43:43.609Z,101378.78
2023-01-29T12:46:21.591Z,101384.59
2023-01-29T12:48:50.682Z,101383.97
2023-01-29T12:51:26.498Z,101382.06
2023-01-29T12:53:57.322Z,101395.03
2023-01-29T12:56:47.656Z,101400.28
2023-01-29T12:59:44.538Z,101400.34
2023-01-29T13:02:21.138Z,101389.03
2023-01-29T13:04:59.365Z,101394.06
2023-01-29T13:07:32.578Z,101385.13
2023-01-29T13:10:19.140Z,101394.13
2023-01-29T13:13:01.593Z,101384.81
2023-01-29T13:15:39.836Z,101388.75
2023-01-29T13:18:18.782Z,101380.44
2023-01-29T13:20:49.488Z,101382.03
2023-01-29T13:23:28.916Z,101382.44
2023-01-29T13:25:57.348Z,101376.47
2023-01-29T13:28:27.183Z,101375.91
2023-01-29T13:31:23.536Z,101364.38
2023-01-29T13:34:13.594Z,101365.16
2023-01-29T13:36:45.668Z,101358.81
2023-01-29T13:39:47.762Z,101357.22
2023-01-29T13:42:21.199Z,101358.22
2023-01-29T13:45:02.910Z,101349.28
2023-01-29T13:47:31.841Z,101352.34
2023-01-29T13:50:01.754Z,101355.03
2023-01-29T13:52:36.021Z,101348.09
2023-01-29T13:55:08.346Z,101355.84
2023-01-29T13:57:46.154Z,101346.91
2023-01-29T14:00:17.125Z,101344.47
2023-01-29T14:03:11.444Z,101349.44
2023-01-29T14:05:40.267Z,101341.69
2023-01-29T14:08:14.284Z,101339.75
2023-01-29T14:10:43.611Z,101349.00
2023-01-29T14:13:23.644Z,101352.44
2023-01-29T14:15:57.348Z,101344.91
2023-01-29T14:18:27.244Z,101348.28
2023-01-29T14:21:01.421Z,101346.72
2023-01-29T14:23:29.531Z,101351.28
2023-01-29T14:26:00.812Z,101345.69
2023-01-29T14:28:34.104Z,101349.59
2023-01-29T14:31:03.695Z,101348.47
2023-01-29T14:33:36.709Z,101346.03
2023-01-29T14:36:09.374Z,101340.50
2023-01-29T14:38:38.857Z,101352.25
2023-01-29T14:41:23.182Z,101339.34
2023-01-29T14:43:50.785Z,101336.94
2023-01-29T14:46:34.172Z,101333.72
2023-01-29T14:49:02.692Z,101333.19
2023-01-29T14:51:38.350Z,101341.44
2023-01-29T14:54:27.878Z,101341.59
2023-01-29T14:57:00.759Z,101338.22
2023-01-29T15:00:01.114Z,101328.78
2023-01-29T15:02:41.242Z,101325.44
2023-01-29T15:05:18.231Z,101329.41
2023-01-29T15:07:55.620Z,101331.81
2023-01-29T15:10:37.218Z,101328.00
2023-01-29T15:13:30.428Z,101323.66
2023-01-29T15:16:21.160Z,101333.38
2023-01-29T15:18:55.056Z,101350.00
2023-01-29T15:21:23.033Z,101352.81
2023-01-29T15:24:04.553Z,101346.31
2023-01-29T15:26:33.583Z,101342.72
2023-01-29T15:29:04.465Z,101340.94
2023-01-29T15:31:35.539Z,101342.69
2023-01-29T15:34:07.719Z,101342.66
2023-01-29T15:36:37.134Z,101351.19
2023-01-29T15:39:27.045Z,101343.72
2023-01-29T15:42:23.564Z,101332.97
2023-01-29T15:44:54.577Z,101338.34
2023-01-29T15:47:28.814Z,101332.31
2023-01-29T15:49:58.007Z,101333.81
2023-01-29T15:52:35.114Z,101333.19
2023-01-29T15:55:06.422Z,101338.37
2023-01-29T15:57:41.566Z,101342.75
2023-01-29T16:00:26.077Z,101344.75
2023-01-29T16:02:54.963Z,101345.53
2023-01-29T16:05:27.964Z,101346.63
2023-01-29T16:07:57.721Z,101351.25
2023-01-29T16:10:31.954Z,101353.50
2023-01-29T16:13:01.026Z,101353.19
2023-01-29T16:15:35.826Z,101350.41
2023-01-29T16:18:42.876Z,101363.84
2023-01-29T16:21:23.104Z,101359.16
2023-01-29T16:23:57.575Z,101367.00
2023-01-29T16:26:34.354Z,101377.53
2023-01-29T16:29:06.968Z,101370.00
2023-01-29T16:31:36.790Z,101378.34
2023-01-29T16:34:19.792Z,101386.41
2023-01-29T16:36:49.472Z,101390.63
2023-01-29T16:39:32.685Z,101381.38
2023-01-29T16:42:10.846Z,101387.19
2023-01-29T16:44:45.897Z,101388.88
2023-01-29T16:47:20.782Z,101394.47
2023-01-29T16:49:51.603Z,101393.13
2023-01-29T16:52:22.784Z,101391.69
2023-01-29T16:54:51.359Z,101386.41
2023-01-29T16:57:29.099Z,101389.31
2023-01-29T17:00:00.344Z,101389.87
2023-01-29T17:02:33.404Z,101387.53
2023-01-29T17:05:07.881Z,101386.34
2023-01-29T17:07:37.181Z,101385.56
2023-01-29T17:10:07.378Z,101388.75
2023-01-29T17:12:38.926Z,101390.34
2023-01-29T17:15:32.151Z,101389.56
2023-01-29T17:18:00.553Z,101394.47
2023-01-29T17:20:31.060Z,101391.41
2023-01-29T17:22:59.046Z,101396.97
2023-01-29T17:25:28.158Z,101391.31
2023-01-29T17:28:00.814Z,101395.12
2023-01-29T17:30:33.924Z,101394.72
2023-01-29T17:33:05.181Z,101385.69
2023-01-29T17:35:32.774Z,101383.97
2023-01-29T17:38:00.698Z,101386.84
2023-01-29T17:40:43.089Z,101378.28
2023-01-29T17:43:11.922Z,101374.72
2023-01-29T17:45:40.482Z,101374.47
2023-01-29T17:48:23.617Z,101375.84
2023-01-29T17:50:58.602Z,101373.53
2023-01-29T17:53:30.482Z,101367.28
2023-01-29T17:56:04.762Z,101365.00
2023-01-29T17:58:32.467Z,101360.50
2023-01-29T18:01:00.620Z,101359.09
2023-01-29T18:03:28.776Z,101353.72
2023-01-29T18:05:56.648Z,101361.59
2023-01-29T18:08:33.768Z,101355.66
2023-01-29T18:11:02.155Z,101351.97
2023-01-29T18:13:30.187Z,101343.50
2023-01-29T18:15:59.244Z,101339.47
2023-01-29T18:18:27.408Z,101345.00
2023-01-29T18:20:55.539Z,101338.37
2023-01-29T18:23:23.398Z,101341.16
2023-01-29T18:25:54.716Z,101343.31
2023-01-29T18:28:22.717Z,101349.81
2023-01-29T18:30:50.718Z,101344.84
2023-01-29T18:33:18.989Z,101348.94
2023-01-29T18:35:50.420Z,101346.41
2023-01-29T18:38:18.615Z,101347.72
2023-01-29T18:40:46.587Z,101344.38
2023-01-29T18:43:15.502Z,101349.63
2023-01-29T18:45:43.835Z,101353.03
2023-01-29T18:48:11.874Z,101351.78
2023-01-29T18:50:40.202Z,101347.00
2023-01-29T18:53:08.118Z,101334.53
2023-01-29T18:55:35.803Z,101328.28
2023-01-29T18:58:25.513Z,101330.94
2023-01-29T19:00:53.678Z,101326.16
2023-01-29T19:03:21.990Z,101329.47
2023-01-29T19:05:50.128Z,101324.59
2023-01-29T19:08:18.910Z,101318.09
2023-01-29T19:10:46.846Z,101314.97
2023-01-29T19:13:15.050Z,101318.19
2023-01-29T19:15:44.157Z,101317.53
2023-01-29T19:18:14.674Z,101312.44
2023-01-29T19:20:42.927Z,101316.88
2023-01-29T19:23:12.180Z,101323.53
2023-01-29T19:25:40.199Z,101330.12
2023-01-29T19:28:08.973Z,101330.41
2023-01-29T19:30:38.383Z,101325.09
2023-01-29T19:33:06.541Z,101325.34
2023-01-29T19:35:34.170Z,101325.56
2023-01-29T19:38:04.101Z,101310.06
2023-01-29T19:40:32.574Z,101315.84
2023-01-29T19:43:00.597Z,101318.97
2023-01-29T19:45:49.707Z,101306.22
2023-01-29T19:48:22.113Z,101303.41
2023-01-29T19:50:54.520Z,101309.34
2023-01-29T19:53:23.082Z,101311.06
2023-01-29T19:56:06.106Z,101319.38
2023-01-29T19:58:35.167Z,101317.19
2023-01-29T20:01:06.333Z,101328.03
2023-01-29T20:03:34.845Z,101319.22
2023-01-29T20:06:04.803Z,101318.41
2023-01-29T20:08:35.629Z,101313.44
2023-01-29T20:11:05.635Z,101319.16
2023-01-29T20:13:34.223Z,101313.03
2023-01-29T20:16:03.947Z,101319.81
2023-01-29T20:18:32.464Z,101309.81
2023-01-29T20:21:06.236Z,101312.03
2023-01-29T20:23:38.004Z,101309.75
2023-01-29T20:26:08.265Z,101317.56
2023-01-29T20:28:36.607Z,101318.09
2023-01-29T20:31:05.913Z,101311.56
2023-01-29T20:33:35.703Z,101310.31
2023-01-29T20:36:07.268Z,101321.19
2023-01-29T20:38:35.977Z,101315.13
2023-01-29T20:41:05.298Z,101317.56
2023-01-29T20:43:33.991Z,101314.97
2023-01-29T20:46:04.011Z,101314.00
2023-01-29T20:48:33.631Z,101302.22
2023-01-29T20:51:10.355Z,101296.56
2023-01-29T20:53:41.093Z,101291.53
2023-01-29T20:56:09.942Z,101283.41
2023-01-29T20:58:41.091Z,101283.03
2023-01-29T21:01:15.475Z,101288.78
2023-01-29T21:03:43.764Z,101294.75
2023-01-29T21:06:11.885Z,101280.16
2023-01-29T21:08:40.644Z,101279.75
2023-01-29T21:11:09.510Z,101274.09
2023-01-29T21:13:37.903Z,101273.53
2023-01-29T21:16:06.186Z,101268.16
2023-01-29T21:18:34.524Z,101278.25
2023-01-29T21:21:03.368Z,101277.25
2023-01-29T21:23:31.257Z,101289.38
2023-01-29T21:26:04.536Z,101288.31
2023-01-29T21:28:33.452Z,101279.06
2023-01-29T21:31:10.311Z,101281.69
2023-01-29T21:33:38.605Z,101277.22
2023-01-29T21:36:07.469Z,101285.09
2023-01-29T21:38:37.034Z,101286.94
2023-01-29T21:41:08.807Z,101286.16
2023-01-29T21:43:37.444Z,101290.13
2023-01-29T21:46:13.902Z,101285.88
2023-01-29T21:48:42.330Z,101287.44
2023-01-29T21:51:10.227Z,101285.06
2023-01-29T21:53:38.062Z,101284.34
2023-01-29T21:56:06.293Z,101286.31
2023-01-29T21:58:34.075Z,101278.03
2023-01-29T22:01:18.480Z,101283.16
2023-01-29T22:03:49.698Z,101283.66
2023-01-29T22:06:17.280Z,101283.50
2023-01-29T22:08:44.842Z,101289.62
2023-01-29T22:11:13.069Z,101283.16
2023-01-29T22:13:40.741Z,101278.69
2023-01-29T22:16:08.481Z,101275.78
2023-01-29T22:18:36.501Z,101274.47
2023-01-29T22:21:04.241Z,101276.38
2023-01-29T22:23:34.832Z,101274.78
2023-01-29T22:26:04.474Z,101274.41
2023-01-29T22:28:32.153Z,101264.53
2023-01-29T22:31:02.184Z,101268.50
2023-01-29T22:33:30.490Z,101266.34
2023-01-29T22:35:58.098Z,101267.25
2023-01-29T22:38:26.229Z,101263.44
2023-01-29T22:40:55.384Z,101258.50
2023-01-29T22:43:25.983Z,101259.50
2023-01-29T22:45:53.841Z,101258.53
2023-01-29T22:48:22.850Z,101243.87
2023-01-29T22:51:11.065Z,101248.03
2023-01-29T22:53:43.289Z,101243.50
2023-01-29T22:56:11.711Z,101230.81
2023-01-29T22:58:41.146Z,101226.44
2023-01-29T23:01:09.782Z,101231.59
2023-01-29T23:03:37.355Z,101237.97
2023-01-29T23:06:05.273Z,101236.34
2023-01-29T23:08:33.713Z,101227.19
2023-01-29T23:11:14.223Z,101230.63
2023-01-29T23:13:44.696Z,101222.06
2023-01-29T23:16:14.069Z,101209.75
2023-01-29T23:18:42.724Z,101211.31
2023-01-29T23:21:11.307Z,101201.03
2023-01-29T23:23:39.436Z,101207.38
2023-01-29T23:26:26.575Z,101199.44
2023-01-29T23:28:54.217Z,101195.28
2023-01-29T23:31:22.522Z,101191.28
2023-01-29T23:33:50.572Z,101201.41
2023-01-29T23:36:18.180Z,101203.37
2023-01-29T23:38:46.248Z,101204.56
2023-01-29T23:41:13.902Z,101203.41
2023-01-29T23:43:41.639Z,101208.34
2023-01-29T23:46:09.645Z,101208.62
2023-01-29T23:48:37.295Z,101214.56
2023-01-29T23:51:04.998Z,101211.97
2023-01-29T23:53:32.888Z,101210.44
2023-01-29T23:56:02.839Z,101203.69
2023-01-29T23:58:32.694Z,101202.81
